Time;durP1;ratioP1;P1;durP2;ratioP2;P2;SDS_P1;SDS_P2;PMS_P1;PMS_P2;Temp;Humidity;BMP_temperature;BMP_pressure;BME280_temperature;BME280_humidity;BME280_pressure;Samples;Min_cycle;Max_cycle;Signal;HPM_P1;HPM_P2
2023/05/12 00:01:35;;;;;;;10.35;7.00;;;;;;;9.41;66.81;94123.72;5004052;28;20041;-84
2023/05/12 00:04:00;;;;;;;8.60;6.00;;;;;;;9.36;66.70;94115.88;4985999;28;20018;-84
2023/05/12 00:06:26;;;;;;;16.20;6.80;;;;;;;9.33;66.53;94119.13;5003505;28;20022;-84
2023/05/12 00:08:51;;;;;;;10.68;6.68;;;;;;;9.31;66.94;94112.53;5003235;28;20323;-84
2023/05/12 00:11:17;;;;;;;10.30;6.57;;;;;;;9.31;66.77;94115.97;5003360;28;20335;-84
2023/05/12 00:13:42;;;;;;;15.77;7.00;;;;;;;9.28;66.93;94121.91;5003828;28;20050;-84
2023/05/12 00:16:08;;;;;;;12.15;7.15;;;;;;;9.26;66.89;94124.06;5002949;28;20014;-84
2023/05/12 00:18:34;;;;;;;11.82;7.07;;;;;;;9.25;66.57;94106.53;5003176;28;20048;-84
2023/05/12 00:21:00;;;;;;;13.13;7.15;;;;;;;9.23;67.33;94120.09;5003945;28;20018;-84
2023/05/12 00:23:25;;;;;;;11.70;6.93;;;;;;;9.24;67.28;94119.03;5003952;28;20022;-84
2023/05/12 00:25:51;;;;;;;12.05;7.10;;;;;;;9.26;67.46;94115.28;5003789;28;20033;-85
2023/05/12 00:28:17;;;;;;;11.07;7.15;;;;;;;9.27;67.88;94122.97;5003273;28;20321;-84
2023/05/12 00:30:43;;;;;;;10.13;7.05;;;;;;;9.25;68.04;94114.50;5003309;28;20061;-84
2023/05/12 00:33:08;;;;;;;15.90;7.47;;;;;;;9.22;68.99;94112.44;4985746;28;20065;-84
2023/05/12 00:35:34;;;;;;;10.98;7.85;;;;;;;9.22;69.17;94129.19;5003620;28;20026;-84
2023/05/12 00:37:59;;;;;;;12.43;7.00;;;;;;;9.15;69.44;94120.81;4986407;28;20220;-85
2023/05/12 00:40:25;;;;;;;11.32;7.55;;;;;;;9.16;69.55;94127.72;5003456;28;20319;-84
2023/05/12 00:42:50;;;;;;;10.38;7.40;;;;;;;9.11;70.04;94119.03;5003027;28;20309;-83
2023/05/12 00:45:16;;;;;;;13.18;7.38;;;;;;;9.07;70.49;94126.03;4987950;28;20053;-82
2023/05/12 00:47:42;;;;;;;12.27;7.63;;;;;;;9.02;70.88;94133.03;4989947;28;20106;-82
2023/05/12 00:50:08;;;;;;;11.90;8.80;;;;;;;8.94;71.46;94131.06;4989715;28;20022;-81
2023/05/12 00:52:34;;;;;;;12.20;7.38;;;;;;;8.93;71.41;94132.13;5006417;28;20057;-82
2023/05/12 00:55:01;;;;;;;15.27;7.97;;;;;;;8.91;71.88;94139.63;5007200;28;20328;-82
2023/05/12 00:57:29;;;;;;;15.98;7.88;;;;;;;8.89;72.32;94141.00;5006880;28;20022;-82
2023/05/12 00:59:55;;;;;;;12.88;7.95;;;;;;;8.89;73.00;94139.13;5007161;28;20040;-82
2023/05/12 01:02:21;;;;;;;10.48;7.28;;;;;;;8.92;72.96;94143.88;5007153;28;20037;-82
2023/05/12 01:04:48;;;;;;;11.75;7.70;;;;;;;8.89;72.82;94136.47;5006831;28;20026;-82
2023/05/12 01:07:24;;;;;;;12.95;8.35;;;;;;;8.87;73.26;94138.63;5006248;28;20068;-82
2023/05/12 01:09:54;;;;;;;9.73;7.10;;;;;;;8.83;73.17;94140.31;5006689;28;20445;-82
2023/05/12 01:12:20;;;;;;;12.70;7.43;;;;;;;8.77;73.52;94149.47;5006503;28;20272;-83
2023/05/12 01:14:46;;;;;;;18.88;8.52;;;;;;;8.76;74.34;94145.25;5006498;28;20030;-83
2023/05/12 01:17:12;;;;;;;13.70;7.60;;;;;;;8.73;74.36;94145.81;5006693;28;20026;-83
2023/05/12 01:19:49;;;;;;;9.82;7.15;;;;;;;8.68;74.77;94140.59;5006696;28;20026;-83
2023/05/12 01:22:16;;;;;;;12.10;7.25;;;;;;;8.63;74.59;94142.28;5006443;28;20030;-83
2023/05/12 01:24:49;;;;;;;10.38;7.53;;;;;;;8.53;74.63;94131.03;5006218;28;20077;-83
2023/05/12 01:27:16;;;;;;;12.88;7.47;;;;;;;8.47;74.97;94133.00;5006450;28;20026;-84
2023/05/12 01:29:45;;;;;;;16.58;8.20;;;;;;;8.40;75.58;94151.13;5006583;28;20034;-84
2023/05/12 01:32:11;;;;;;;13.43;8.13;;;;;;;8.40;75.50;94140.50;5006436;28;20027;-83
2023/05/12 01:34:37;;;;;;;10.40;7.28;;;;;;;8.36;75.54;94142.97;5006372;28;20057;-83
2023/05/12 01:37:02;;;;;;;14.07;7.75;;;;;;;8.32;76.00;94141.19;4988947;28;20022;-82
2023/05/12 01:39:28;;;;;;;12.93;6.57;;;;;;;8.29;76.10;94131.16;5006123;28;20093;-83
2023/05/12 01:41:58;;;;;;;15.98;6.78;;;;;;;8.22;76.25;94134.97;5005846;28;20014;-83
2023/05/12 01:44:24;;;;;;;12.00;7.30;;;;;;;8.16;76.52;94130.03;5006042;28;20324;-83
2023/05/12 01:46:49;;;;;;;10.43;7.20;;;;;;;8.17;76.76;94135.06;5006265;28;20022;-83
2023/05/12 01:49:15;;;;;;;11.35;7.22;;;;;;;8.11;76.85;94135.44;5006040;28;20220;-83
2023/05/12 01:51:40;;;;;;;10.20;6.00;;;;;;;8.03;77.43;94140.31;5006052;28;20046;-83
2023/05/12 01:54:06;;;;;;;11.35;6.15;;;;;;;8.01;77.53;94131.06;5005314;28;20117;-83
2023/05/12 01:56:31;;;;;;;9.15;6.35;;;;;;;8.02;77.20;94135.31;5005487;28;20093;-82
2023/05/12 01:58:57;;;;;;;12.77;7.70;;;;;;;8.00;77.43;94137.47;5006151;28;20018;-83
2023/05/12 02:01:27;;;;;;;9.48;6.30;;;;;;;7.98;77.63;94136.97;5005931;28;20033;-83
2023/05/12 02:03:53;;;;;;;9.82;5.78;;;;;;;8.02;77.83;94132.66;5005981;28;20254;-83
2023/05/12 02:06:18;;;;;;;11.25;6.70;;;;;;;7.99;77.78;94138.53;5005567;28;20038;-83
2023/05/12 02:08:45;;;;;;;10.02;6.72;;;;;;;7.98;77.82;94131.66;5005835;28;20046;-83
2023/05/12 02:11:10;;;;;;;11.25;7.00;;;;;;;7.98;77.80;94134.31;5005939;28;20094;-83
2023/05/12 02:13:36;;;;;;;9.52;6.50;;;;;;;7.95;78.10;94133.00;4987913;28;20030;-83
2023/05/12 02:16:02;;;;;;;9.18;6.03;;;;;;;8.01;78.00;94133.72;4988690;28;20256;-83
2023/05/12 02:18:28;;;;;;;9.10;6.60;;;;;;;8.02;78.06;94130.78;5005500;28;20026;-84
2023/05/12 02:20:53;;;;;;;14.45;7.75;;;;;;;8.03;78.36;94137.66;4988543;28;20029;-83
2023/05/12 02:23:19;;;;;;;11.60;7.30;;;;;;;8.05;78.46;94134.72;5004723;28;20027;-83
2023/05/12 02:25:45;;;;;;;11.48;6.60;;;;;;;8.05;77.70;94140.03;5005388;28;20129;-83
2023/05/12 02:28:11;;;;;;;10.30;5.97;;;;;;;8.05;77.58;94137.38;5005498;28;20205;-84
2023/05/12 02:30:37;;;;;;;8.77;5.80;;;;;;;8.05;78.20;94132.06;5005317;28;20093;-83
2023/05/12 02:33:05;;;;;;;10.63;6.10;;;;;;;8.02;78.19;94127.34;5005423;28;20052;-84
2023/05/12 02:35:31;;;;;;;15.43;6.85;;;;;;;8.04;78.27;94130.50;5005099;28;20006;-84
2023/05/12 02:37:56;;;;;;;11.40;5.80;;;;;;;7.99;78.25;94120.72;5005642;28;20026;-85
2023/05/12 02:40:22;;;;;;;8.77;5.63;;;;;;;8.06;78.10;94123.03;5005462;28;20033;-85
2023/05/12 02:42:48;;;;;;;9.57;6.10;;;;;;;8.04;78.17;94123.31;4987414;28;20033;-84
2023/05/12 02:45:13;;;;;;;11.07;6.15;;;;;;;8.06;78.21;94127.53;5004987;28;20260;-82
2023/05/12 02:47:39;;;;;;;10.00;5.90;;;;;;;8.11;77.60;94135.44;5004525;28;20034;-81
2023/05/12 02:50:05;;;;;;;8.50;5.95;;;;;;;8.04;77.97;94127.84;5004945;28;20343;-82
2023/05/12 02:52:30;;;;;;;8.40;5.75;;;;;;;7.98;77.86;94123.69;4987258;28;20022;-83
2023/05/12 02:54:56;;;;;;;9.63;6.00;;;;;;;7.94;78.20;94131.44;5004869;28;20097;-83
2023/05/12 02:57:22;;;;;;;12.50;6.75;;;;;;;7.79;78.69;94124.47;5004834;28;20041;-83
2023/05/12 02:59:47;;;;;;;9.50;5.97;;;;;;;7.76;78.80;94142.88;5004670;28;20321;-85
2023/05/12 03:02:13;;;;;;;10.10;5.63;;;;;;;7.75;78.83;94141.28;5004818;28;20086;-84
2023/05/12 03:04:38;;;;;;;10.68;5.50;;;;;;;7.73;78.81;94138.91;5004636;28;20014;-84
2023/05/12 03:07:04;;;;;;;9.88;5.63;;;;;;;7.66;79.10;94141.13;5004651;28;20076;-85
2023/05/12 03:09:29;;;;;;;10.90;5.65;;;;;;;7.63;78.83;94131.09;5004857;28;20018;-84
2023/05/12 03:11:55;;;;;;;9.63;5.47;;;;;;;7.63;79.06;94141.69;5004455;28;20344;-84
2023/05/12 03:14:20;;;;;;;9.63;6.38;;;;;;;7.62;79.43;94143.56;5004793;28;20018;-85
2023/05/12 03:16:46;;;;;;;12.55;6.38;;;;;;;7.63;79.50;94147.81;5004825;28;20049;-85
2023/05/12 03:19:15;;;;;;;11.40;6.50;;;;;;;7.63;79.51;94150.47;5004645;28;20036;-85
2023/05/12 03:21:40;;;;;;;9.55;6.18;;;;;;;7.66;79.80;94157.06;5004691;28;20139;-85
2023/05/12 03:24:06;;;;;;;10.77;5.97;;;;;;;7.67;80.12;94161.28;5004736;28;20022;-85
2023/05/12 03:26:32;;;;;;;11.20;7.57;;;;;;;7.69;79.93;94161.78;5004227;28;20026;-84
2023/05/12 03:28:57;;;;;;;14.70;7.35;;;;;;;7.68;79.62;94154.13;5003924;28;20022;-85
2023/05/12 03:31:23;;;;;;;11.98;6.43;;;;;;;7.72;79.34;94155.13;5003967;28;20301;-84
2023/05/12 03:33:48;;;;;;;12.35;7.03;;;;;;;7.71;79.45;94175.53;5005828;28;20030;-84
2023/05/12 03:36:14;;;;;;;11.18;6.15;;;;;;;7.70;79.51;94173.97;4988810;28;20042;-85
2023/05/12 03:38:39;;;;;;;10.27;5.63;;;;;;;7.64;79.71;94164.53;5006856;28;20389;-85
2023/05/12 03:41:05;;;;;;;9.55;6.30;;;;;;;7.69;79.75;94172.38;5004986;28;20022;-85
2023/05/12 03:43:31;;;;;;;13.73;6.25;;;;;;;7.70;80.07;94167.91;5005151;28;20045;-84
2023/05/12 03:45:56;;;;;;;10.18;6.35;;;;;;;7.69;79.72;94174.25;5003758;28;20022;-84
2023/05/12 03:48:22;;;;;;;12.77;6.35;;;;;;;7.70;79.95;94178.50;4987330;28;20546;-84
2023/05/12 03:50:47;;;;;;;9.18;5.90;;;;;;;7.71;79.95;94175.53;5004045;28;20027;-84
2023/05/12 03:53:13;;;;;;;15.23;6.85;;;;;;;7.72;79.91;94182.44;5005510;28;20061;-84
2023/05/12 03:55:40;;;;;;;10.05;6.20;;;;;;;7.75;80.08;94186.38;5003876;28;20025;-84
2023/05/12 03:58:14;;;;;;;13.52;6.18;;;;;;;7.74;80.14;94180.28;5004221;28;20022;-84
2023/05/12 04:00:39;;;;;;;11.80;6.35;;;;;;;7.78;80.06;94177.88;5003752;28;20022;-84
2023/05/12 04:03:05;;;;;;;14.88;7.03;;;;;;;7.82;79.62;94173.56;4986730;28;20030;-84
2023/05/12 04:05:35;;;;;;;11.52;6.95;;;;;;;7.81;79.74;94180.72;5005316;28;20026;-84
2023/05/12 04:08:00;;;;;;;18.80;11.10;;;;;;;7.83;79.96;94188.38;5003867;28;20073;-84
2023/05/12 04:10:26;;;;;;;14.25;6.63;;;;;;;7.89;80.06;94191.78;5005368;28;20030;-84
2023/05/12 04:12:51;;;;;;;13.38;6.75;;;;;;;7.94;79.53;94189.06;5004129;28;20046;-84
2023/05/12 04:15:17;;;;;;;12.38;6.90;;;;;;;7.96;79.81;94194.88;5003740;28;20026;-85
2023/05/12 04:17:43;;;;;;;12.10;6.63;;;;;;;7.98;79.52;94190.84;5003446;28;20038;-84
2023/05/12 04:20:08;;;;;;;16.48;7.90;;;;;;;8.07;79.58;94196.28;5003372;28;20073;-84
2023/05/12 04:22:34;;;;;;;13.20;6.88;;;;;;;8.05;79.26;94195.78;5005771;28;20367;-83
2023/05/12 04:24:59;;;;;;;16.25;7.45;;;;;;;8.06;79.70;94194.72;5003793;28;20066;-83
2023/05/12 04:27:25;;;;;;;13.98;6.25;;;;;;;8.05;79.89;94201.09;5003423;28;20312;-82
2023/05/12 04:29:50;;;;;;;19.42;6.82;;;;;;;8.10;79.81;94193.06;5003498;28;20026;-82
2023/05/12 04:32:17;;;;;;;12.63;6.15;;;;;;;8.15;79.56;94195.63;4985894;28;20035;-82
2023/05/12 04:34:42;;;;;;;11.73;5.65;;;;;;;8.19;79.03;94196.63;5003682;28;20037;-83
2023/05/12 04:37:08;;;;;;;12.45;6.75;;;;;;;8.18;79.13;94191.59;5003708;28;20026;-83
2023/05/12 04:39:33;;;;;;;11.85;5.93;;;;;;;8.26;78.89;94196.25;5003627;28;20236;-82
2023/05/12 04:42:02;;;;;;;10.55;6.18;;;;;;;8.30;78.79;94191.16;5003396;28;20305;-83
2023/05/12 04:44:27;;;;;;;11.80;6.50;;;;;;;8.34;78.64;94192.16;5003089;28;20037;-82
2023/05/12 04:46:55;;;;;;;10.40;6.10;;;;;;;8.35;78.22;94185.78;5003522;28;20026;-82
2023/05/12 04:49:21;;;;;;;10.15;6.70;;;;;;;8.38;78.18;94187.81;5003183;28;20077;-82
2023/05/12 04:51:46;;;;;;;11.45;6.05;;;;;;;8.40;78.21;94190.97;5003062;28;20027;-82
2023/05/12 04:54:12;;;;;;;20.55;7.03;;;;;;;8.42;77.66;94191.50;5002881;28;20046;-82
2023/05/12 04:56:37;;;;;;;10.60;6.43;;;;;;;8.39;77.88;94195.50;5003204;28;20066;-81
2023/05/12 04:59:03;;;;;;;10.68;5.90;;;;;;;8.46;77.87;94191.72;5002823;28;20030;-81
2023/05/12 05:01:28;;;;;;;10.85;6.38;;;;;;;8.46;77.59;94195.16;5003464;28;20022;-81
2023/05/12 05:03:54;;;;;;;12.80;6.88;;;;;;;8.42;77.72;94199.47;5003015;28;20026;-85
2023/05/12 05:06:19;;;;;;;16.63;8.93;;;;;;;8.41;77.64;94198.69;5002727;28;20042;-85
2023/05/12 05:08:45;;;;;;;17.08;7.85;;;;;;;8.49;77.52;94205.22;5003165;28;20034;-82
2023/05/12 05:11:10;;;;;;;13.27;7.72;;;;;;;8.50;77.57;94204.13;5003107;28;20217;-83
2023/05/12 05:13:36;;;;;;;10.18;6.13;;;;;;;8.53;77.43;94195.59;5003215;28;20321;-85
2023/05/12 05:16:01;;;;;;;10.77;6.68;;;;;;;8.59;76.88;94198.97;5003293;28;20089;-84
2023/05/12 05:18:28;;;;;;;11.43;6.28;;;;;;;8.63;76.66;94200.72;5003419;28;20220;-84
2023/05/12 05:20:53;;;;;;;13.02;6.53;;;;;;;8.67;76.84;94200.94;5003218;28;20030;-84
2023/05/12 05:23:19;;;;;;;11.25;6.80;;;;;;;8.76;76.29;94203.72;5003394;28;20130;-84
2023/05/12 05:25:44;;;;;;;11.50;7.00;;;;;;;8.79;76.08;94195.13;5003193;28;20030;-85
2023/05/12 05:28:10;;;;;;;11.38;6.20;;;;;;;8.78;76.06;94199.66;5003322;28;20093;-85
2023/05/12 05:30:35;;;;;;;10.90;6.18;;;;;;;8.84;75.82;94195.84;5002969;28;20029;-85
2023/05/12 05:33:01;;;;;;;12.65;7.43;;;;;;;8.90;75.84;94203.72;4988945;28;20030;-85
2023/05/12 05:35:26;;;;;;;15.80;7.32;;;;;;;8.91;76.11;94202.63;4988756;28;20057;-85
2023/05/12 05:37:53;;;;;;;9.77;6.05;;;;;;;8.90;75.61;94204.50;5006545;28;20065;-84
2023/05/12 05:40:18;;;;;;;13.90;7.35;;;;;;;8.98;75.79;94197.75;4989160;28;20068;-85
2023/05/12 05:42:44;;;;;;;11.55;6.63;;;;;;;8.96;74.96;94208.66;5006373;28;20010;-83
2023/05/12 05:45:10;;;;;;;13.32;7.25;;;;;;;8.98;75.02;94206.50;5007771;28;20086;-83
2023/05/12 05:47:36;;;;;;;12.98;7.60;;;;;;;9.03;75.21;94203.72;5004518;28;20062;-84
2023/05/12 05:50:05;;;;;;;14.50;7.65;;;;;;;9.09;74.73;94206.31;5005587;28;20220;-84
2023/05/12 05:52:31;;;;;;;16.95;6.88;;;;;;;9.00;73.68;94201.66;5005880;28;20026;-85
2023/05/12 05:54:56;;;;;;;14.32;8.40;;;;;;;8.95;74.11;94212.38;5006207;28;20102;-85
2023/05/12 05:57:21;;;;;;;12.95;8.60;;;;;;;8.97;74.20;94204.13;5005690;28;20045;-84
2023/05/12 05:59:47;;;;;;;12.63;8.05;;;;;;;9.03;73.96;94218.91;5005508;28;20025;-84
2023/05/12 06:02:12;;;;;;;15.90;8.55;;;;;;;9.16;74.08;94217.31;5005885;28;20085;-84
2023/05/12 06:04:38;;;;;;;13.20;8.30;;;;;;;9.18;73.25;94215.97;5005809;28;20049;-83
2023/05/12 06:07:03;;;;;;;16.33;8.18;;;;;;;9.20;73.46;94213.81;5006000;28;20301;-83
2023/05/12 06:09:29;;;;;;;16.73;8.35;;;;;;;9.30;73.49;94212.00;5005927;28;20018;-84
2023/05/12 06:11:55;;;;;;;14.18;9.60;;;;;;;9.30;72.91;94217.34;4988781;28;20014;-80
2023/05/12 06:14:20;;;;;;;14.18;8.93;;;;;;;9.33;72.70;94217.53;5005979;28;20061;-83
2023/05/12 06:16:45;;;;;;;18.33;8.45;;;;;;;9.39;72.48;94223.56;5005500;28;20018;-82
2023/05/12 06:19:11;;;;;;;18.10;8.35;;;;;;;9.41;72.84;94219.50;5005916;28;20018;-82
2023/05/12 06:21:37;;;;;;;27.05;9.27;;;;;;;9.51;72.56;94231.81;5005712;28;20143;-82
2023/05/12 06:24:03;;;;;;;25.52;7.57;;;;;;;9.61;71.99;94225.53;5005723;28;20381;-82
2023/05/12 06:26:28;;;;;;;14.88;8.13;;;;;;;9.66;71.87;94228.06;5004650;28;20026;-83
2023/05/12 06:28:53;;;;;;;18.75;8.45;;;;;;;9.76;71.81;94230.50;4988134;28;20018;-83
2023/05/12 06:31:19;;;;;;;13.32;8.30;;;;;;;9.80;71.05;94231.50;4988037;28;20069;-81
2023/05/12 06:33:44;;;;;;;11.77;7.82;;;;;;;9.86;70.73;94234.06;5005099;28;20077;-81
2023/05/12 06:36:11;;;;;;;14.00;7.90;;;;;;;9.87;70.65;94231.09;5005006;28;20018;-81
2023/05/12 06:38:36;;;;;;;25.35;7.80;;;;;;;9.93;70.28;94237.09;5005061;28;20049;-81
2023/05/12 06:41:02;;;;;;;16.58;7.72;;;;;;;9.95;69.96;94234.91;5004921;28;20022;-80
2023/05/12 06:43:27;;;;;;;15.30;8.13;;;;;;;9.97;70.11;94236.22;5004885;28;20046;-81
2023/05/12 06:45:53;;;;;;;24.73;12.20;;;;;;;9.93;69.90;94242.41;5005514;28;20018;-81
2023/05/12 06:48:18;;;;;;;23.13;7.82;;;;;;;9.91;69.88;94239.25;5004852;28;20026;-80
2023/05/12 06:50:44;;;;;;;15.95;9.23;;;;;;;9.90;70.30;94245.69;5005107;28;20018;-81
2023/05/12 06:53:10;;;;;;;13.70;7.65;;;;;;;9.94;70.52;94238.69;5004337;28;20205;-81
2023/05/12 06:55:35;;;;;;;15.57;7.90;;;;;;;9.92;70.63;94244.28;5004766;28;20073;-81
2023/05/12 06:58:01;;;;;;;16.50;7.88;;;;;;;9.86;71.03;94242.03;5005055;28;20073;-81
2023/05/12 07:00:27;;;;;;;13.43;8.00;;;;;;;9.88;71.31;94237.22;5004867;28;20233;-81
2023/05/12 07:02:52;;;;;;;15.65;8.63;;;;;;;9.86;70.60;94229.50;5005000;28;20026;-82
2023/05/12 07:05:18;;;;;;;12.48;7.60;;;;;;;9.84;70.59;94243.13;5004603;28;20018;-82
2023/05/12 07:07:44;;;;;;;14.55;8.65;;;;;;;9.79;70.79;94232.59;5004626;28;20022;-82
2023/05/12 07:10:10;;;;;;;14.45;7.00;;;;;;;9.81;71.11;94235.75;5004532;28;20025;-82
2023/05/12 07:12:37;;;;;;;12.00;7.25;;;;;;;9.91;72.54;94244.59;4987299;28;20346;-82
2023/05/12 07:15:03;;;;;;;13.85;7.50;;;;;;;9.98;72.72;94239.66;4987199;28;20042;-83
2023/05/12 07:17:28;;;;;;;16.50;7.47;;;;;;;10.13;73.34;94241.97;5004437;28;20325;-81
2023/05/12 07:19:54;;;;;;;14.95;7.68;;;;;;;10.19;73.11;94245.31;4986969;28;20030;-80
2023/05/12 07:22:19;;;;;;;16.30;7.90;;;;;;;10.23;70.74;94241.75;5003413;28;20321;-81
2023/05/12 07:24:45;;;;;;;16.02;8.40;;;;;;;10.39;70.55;94236.88;5003907;28;20264;-82
2023/05/12 07:27:10;;;;;;;19.08;7.93;;;;;;;10.53;71.25;94241.38;5004418;28;20030;-84
2023/05/12 07:29:36;;;;;;;16.83;7.70;;;;;;;10.68;69.31;94242.88;4986938;28;20045;-82
2023/05/12 07:32:02;;;;;;;15.25;7.63;;;;;;;10.78;69.17;94248.75;5004417;28;20113;-82
2023/05/12 07:34:27;;;;;;;15.50;8.13;;;;;;;10.94;68.27;94246.50;4985828;28;20033;-82
2023/05/12 07:36:52;;;;;;;13.55;7.80;;;;;;;11.00;67.52;94247.16;5003414;28;20026;-81
2023/05/12 07:39:22;;;;;;;19.85;7.72;;;;;;;11.10;67.42;94251.44;5003839;28;20030;-82
2023/05/12 07:41:48;;;;;;;12.85;7.50;;;;;;;11.19;66.66;94241.59;5003507;28;20028;-82
2023/05/12 07:44:15;;;;;;;18.50;7.78;;;;;;;11.29;67.07;94251.22;5003473;28;20046;-81
2023/05/12 07:46:40;;;;;;;13.25;7.78;;;;;;;11.40;66.01;94247.19;5003566;28;20056;-81
2023/05/12 07:49:06;;;;;;;28.40;8.98;;;;;;;11.47;66.12;94252.09;5003609;28;20018;-86
2023/05/12 07:51:31;;;;;;;15.40;7.95;;;;;;;11.52;65.13;94247.41;5003300;28;20026;-85
2023/05/12 07:53:57;;;;;;;24.27;9.43;;;;;;;11.59;65.54;94249.63;5002026;28;20045;-83
2023/05/12 07:56:23;;;;;;;18.77;8.13;;;;;;;11.71;66.17;94241.00;5003761;28;20030;-83
2023/05/12 07:58:48;;;;;;;19.83;8.07;;;;;;;11.90;64.28;94241.53;5003284;28;20056;-81
2023/05/12 08:01:14;;;;;;;10.45;7.00;;;;;;;11.94;64.06;94241.72;4986178;28;20022;-83
2023/05/12 08:03:39;;;;;;;14.30;7.32;;;;;;;12.11;63.39;94243.63;4986032;28;20224;-84
2023/05/12 08:06:06;;;;;;;15.20;6.95;;;;;;;12.21;62.31;94236.09;5002036;28;20270;-84
2023/05/12 08:08:32;;;;;;;14.38;6.53;;;;;;;12.33;61.90;94238.13;5003539;28;20013;-86
2023/05/12 08:10:58;;;;;;;11.48;6.75;;;;;;;12.42;61.43;94243.50;5003495;28;20027;-85
2023/05/12 08:13:25;;;;;;;11.88;7.05;;;;;;;12.46;60.86;94247.13;5003296;28;20053;-84
2023/05/12 08:15:50;;;;;;;27.38;6.80;;;;;;;12.43;60.92;94245.06;5003306;28;20014;-86
2023/05/12 08:18:16;;;;;;;12.32;7.18;;;;;;;12.52;60.71;94237.84;5003152;28;20052;-85
2023/05/12 08:20:41;;;;;;;14.07;6.45;;;;;;;12.67;60.32;94238.44;5003225;28;20014;-85
2023/05/12 08:23:07;;;;;;;13.45;6.95;;;;;;;12.78;59.50;94245.84;5003478;28;20042;-83
2023/05/12 08:25:34;;;;;;;14.07;6.20;;;;;;;12.87;58.55;94235.09;5003646;28;20018;-84
2023/05/12 08:28:00;;;;;;;14.35;6.35;;;;;;;12.90;59.09;94242.47;5003522;28;20094;-83
2023/05/12 08:30:26;;;;;;;13.23;6.65;;;;;;;12.95;58.95;94245.00;5002836;28;20018;-84
2023/05/12 08:32:53;;;;;;;15.38;6.30;;;;;;;13.07;58.85;94246.22;5002471;28;20018;-84
2023/05/12 08:35:19;;;;;;;15.82;5.88;;;;;;;13.10;57.63;94251.72;5001735;28;20022;-81
2023/05/12 08:37:44;;;;;;;18.10;6.28;;;;;;;13.12;57.58;94246.84;5001504;28;20061;-83
2023/05/12 08:40:23;;;;;;;10.13;6.03;;;;;;;13.12;58.07;94256.78;5002972;28;20018;-81
2023/05/12 08:42:54;;;;;;;14.50;7.07;;;;;;;13.19;57.30;94252.50;5002965;28;20022;-81
2023/05/12 08:45:21;;;;;;;11.30;5.73;;;;;;;13.23;56.88;94248.09;5003085;28;20106;-81
2023/05/12 08:47:49;;;;;;;8.63;5.43;;;;;;;13.32;56.53;94248.06;5002519;28;20046;-80
2023/05/12 08:50:16;;;;;;;11.30;6.55;;;;;;;13.38;57.42;94243.34;5002634;28;20089;-85
2023/05/12 08:52:41;;;;;;;16.35;6.30;;;;;;;13.40;57.00;94244.59;5002436;28;20058;-85
2023/05/12 08:55:08;;;;;;;10.35;6.57;;;;;;;13.43;57.51;94246.63;5003801;28;20108;-85
2023/05/12 08:57:36;;;;;;;34.42;6.85;;;;;;;13.46;56.10;94258.59;4985613;28;20026;-85
2023/05/12 09:00:04;;;;;;;17.30;6.32;;;;;;;13.53;56.35;94247.38;5003218;28;20050;-87
2023/05/12 09:02:30;;;;;;;13.25;6.75;;;;;;;13.60;57.11;94253.03;5003399;28;20029;-87
2023/05/12 09:04:56;;;;;;;16.38;6.38;;;;;;;13.71;56.91;94246.19;5003489;28;20030;-86
2023/05/12 09:07:23;;;;;;;14.63;7.60;;;;;;;13.65;55.89;94245.56;5006867;28;20389;-85
2023/05/12 09:09:55;;;;;;;18.13;6.22;;;;;;;13.71;55.91;94246.19;5007245;28;20030;-89
2023/05/12 09:12:20;;;;;;;14.90;6.85;;;;;;;13.75;55.31;94239.06;4989023;28;20026;-87
2023/05/12 09:14:57;;;;;;;11.57;5.45;;;;;;;13.88;54.25;94239.16;5006423;28;20033;-83
2023/05/12 09:17:22;;;;;;;26.83;6.38;;;;;;;13.88;53.99;94239.97;5006175;28;20038;-81
2023/05/12 09:19:48;;;;;;;16.58;6.15;;;;;;;13.84;54.07;94236.38;5006310;28;20030;-81
2023/05/12 09:22:14;;;;;;;15.73;6.05;;;;;;;13.76;54.47;94240.66;5005899;28;20319;-81
2023/05/12 09:24:39;;;;;;;16.00;6.45;;;;;;;13.68;55.81;94232.63;5006154;28;20117;-82
2023/05/12 09:27:06;;;;;;;10.18;6.45;;;;;;;13.61;56.02;94233.16;5006154;28;20125;-80
2023/05/12 09:29:32;;;;;;;19.33;7.13;;;;;;;13.59;55.88;94230.00;5006053;28;20065;-85
2023/05/12 09:32:00;;;;;;;16.20;6.80;;;;;;;13.61;55.90;94225.91;5006208;28;20253;-81
2023/05/12 09:34:31;;;;;;;20.83;6.47;;;;;;;13.58;55.49;94223.09;5006264;28;20090;-80
2023/05/12 09:37:05;;;;;;;10.55;6.63;;;;;;;13.53;55.52;94224.03;5005847;28;20018;-80
2023/05/12 09:39:31;;;;;;;13.38;5.85;;;;;;;13.53;55.66;94226.72;5005881;28;20320;-80
2023/05/12 09:41:57;;;;;;;16.13;7.22;;;;;;;13.57;56.08;94226.88;5005908;28;20088;-80
2023/05/12 09:44:24;;;;;;;10.88;5.88;;;;;;;13.57;55.75;94233.00;5005563;28;20348;-80
2023/05/12 09:46:50;;;;;;;8.95;6.72;;;;;;;13.69;55.63;94234.22;5005805;28;20022;-83
2023/05/12 09:49:26;;;;;;;23.30;6.43;;;;;;;13.67;55.25;94234.53;5005289;28;20069;-81
2023/05/12 09:51:56;;;;;;;12.60;6.28;;;;;;;13.67;55.03;94231.09;5005285;28;20022;-79
2023/05/12 09:54:26;;;;;;;12.00;5.97;;;;;;;13.73;55.58;94227.91;5005239;28;20062;-80
2023/05/12 09:56:56;;;;;;;10.18;6.13;;;;;;;13.83;55.32;94224.84;5003988;28;20195;-79
2023/05/12 09:59:25;;;;;;;9.75;6.00;;;;;;;13.92;54.69;94219.44;5005437;28;20022;-81
2023/05/12 10:01:52;;;;;;;12.25;5.40;;;;;;;13.92;54.99;94221.31;5005707;28;20070;-79
2023/05/12 10:04:19;;;;;;;12.73;5.95;;;;;;;14.09;55.04;94229.25;5005767;28;20026;-79
2023/05/12 10:06:46;;;;;;;10.50;5.80;;;;;;;14.24;54.96;94220.63;5005686;28;20118;-83
2023/05/12 10:09:32;;;;;;;9.32;5.55;;;;;;;14.28;54.28;94214.63;5005815;28;20026;-84
2023/05/12 10:11:59;;;;;;;8.90;5.93;;;;;;;14.38;54.86;94208.88;5005698;28;20081;-83
2023/05/12 10:14:25;;;;;;;13.77;6.50;;;;;;;14.51;54.22;94212.38;4988394;28;20149;-82
2023/05/12 10:16:51;;;;;;;13.75;5.97;;;;;;;14.58;53.70;94216.13;5005083;28;20023;-85
2023/05/12 10:19:17;;;;;;;10.98;6.43;;;;;;;14.77;52.95;94209.50;5005532;28;20048;-78
2023/05/12 10:21:45;;;;;;;9.20;5.35;;;;;;;14.94;52.50;94205.84;5005440;28;20057;-81
2023/05/12 10:24:13;;;;;;;8.90;5.30;;;;;;;15.14;51.92;94209.59;5005417;28;20029;-80
2023/05/12 10:26:41;;;;;;;11.38;6.05;;;;;;;15.19;52.02;94206.69;5005522;28;20029;-79
2023/05/12 10:29:07;;;;;;;14.93;5.80;;;;;;;15.32;51.21;94205.59;5005600;28;20018;-78
2023/05/12 10:31:34;;;;;;;10.20;5.45;;;;;;;15.37;50.79;94201.91;5005398;28;20028;-78
2023/05/12 10:34:01;;;;;;;11.60;4.80;;;;;;;15.38;50.54;94204.25;5005622;28;20324;-79
2023/05/12 10:36:27;;;;;;;7.45;5.00;;;;;;;15.45;50.90;94203.72;5005357;28;20032;-87
2023/05/12 10:38:54;;;;;;;11.20;7.32;;;;;;;15.50;50.22;94206.16;5005340;28;20033;-80
2023/05/12 10:41:33;;;;;;;9.48;5.05;;;;;;;15.64;49.98;94200.47;5004868;28;20089;-81
2023/05/12 10:43:59;;;;;;;8.75;5.55;;;;;;;15.62;49.71;94195.41;5003830;28;20201;-81
2023/05/12 10:46:26;;;;;;;9.57;4.82;;;;;;;15.65;49.64;94202.00;5000812;28;20084;-82
2023/05/12 10:48:58;;;;;;;9.10;4.88;;;;;;;15.80;49.14;94198.69;5002194;28;20015;-81
2023/05/12 10:51:47;;;;;;;8.65;4.30;;;;;;;15.93;48.76;94198.69;5002957;28;20241;-81
2023/05/12 10:54:19;;;;;;;7.78;4.72;;;;;;;15.93;48.31;94198.69;5001353;28;20058;-81
2023/05/12 10:56:45;;;;;;;8.05;3.58;;;;;;;15.87;47.82;94202.72;5001537;28;20029;-81
2023/05/12 10:59:12;;;;;;;9.77;3.92;;;;;;;15.84;48.71;94194.19;5001732;28;20098;-81
2023/05/12 11:01:54;;;;;;;6.88;4.30;;;;;;;15.89;48.69;94201.25;5001864;28;20053;-81
2023/05/12 11:04:21;;;;;;;14.48;4.60;;;;;;;15.81;48.50;94205.66;5003013;28;20018;-81
2023/05/12 11:06:57;;;;;;;5.30;3.92;;;;;;;15.83;48.58;94208.78;5003465;28;20038;-82
2023/05/12 11:09:23;;;;;;;7.60;3.80;;;;;;;15.74;48.78;94210.00;5004585;28;20454;-81
2023/05/12 11:11:49;;;;;;;6.72;4.25;;;;;;;15.63;47.96;94204.25;5004414;28;20026;-81
2023/05/12 11:14:15;;;;;;;8.27;4.40;;;;;;;15.53;49.37;94202.81;5004179;28;20242;-81
2023/05/12 11:16:42;;;;;;;15.13;5.30;;;;;;;15.56;49.30;94209.41;5004007;28;20061;-81
2023/05/12 11:19:08;;;;;;;7.45;4.57;;;;;;;15.59;49.51;94208.72;5003422;28;20037;-82
2023/05/12 11:21:34;;;;;;;9.85;4.38;;;;;;;15.61;49.07;94206.50;4986511;28;20022;-82
2023/05/12 11:24:01;;;;;;;6.53;4.68;;;;;;;15.58;48.92;94201.81;5003635;28;20026;-81
2023/05/12 11:26:29;;;;;;;7.10;3.80;;;;;;;15.62;48.98;94210.75;5003732;28;20049;-82
2023/05/12 11:28:58;;;;;;;9.43;4.80;;;;;;;15.59;48.52;94212.22;5003658;28;20030;-81